Time;durP1;ratioP1;P1;durP2;ratioP2;P2;SDS_P1;SDS_P2;PMS_P1;PMS_P2;Temp;Humidity;BMP_temperature;BMP_pressure;BME280_temperature;BME280_humidity;BME280_pressure;Samples;Min_cycle;Max_cycle;Signal;HPM_P1;HPM_P2
2022/04/20 00:00:39;;;;;;;7.60;5.53;;;;;;;-0.93;79.85;93080.97;5112568;28;20034;-38
2022/04/20 00:03:05;;;;;;;9.70;6.03;;;;;;;-1.04;79.44;93085.59;5112538;28;20019;-38
2022/04/20 00:05:33;;;;;;;9.18;6.47;;;;;;;-1.10;80.19;93082.84;5112256;28;20503;-38
2022/04/20 00:07:59;;;;;;;18.30;7.72;;;;;;;-1.14;80.19;93087.75;5112439;28;20028;-38
2022/04/20 00:10:25;;;;;;;10.05;7.32;;;;;;;-1.12;80.28;93093.41;5112119;28;20031;-38
2022/04/20 00:12:50;;;;;;;7.80;5.43;;;;;;;-1.07;80.12;93091.97;5108470;28;20020;-38
2022/04/20 00:15:15;;;;;;;6.28;4.93;;;;;;;-0.95;79.67;93101.63;5091349;28;20075;-38
2022/04/20 00:17:41;;;;;;;5.63;4.97;;;;;;;-0.97;79.93;93095.97;5091869;28;20405;-38
2022/04/20 00:20:07;;;;;;;8.45;6.47;;;;;;;-0.99;79.68;93099.16;5091499;28;20020;-38
2022/04/20 00:22:32;;;;;;;18.00;6.72;;;;;;;-1.07;80.11;93097.38;5091822;28;20429;-38
2022/04/20 00:24:58;;;;;;;8.50;6.65;;;;;;;-1.17;80.06;93102.22;5091708;28;20032;-38
2022/04/20 00:27:23;;;;;;;8.25;4.97;;;;;;;-1.20;80.13;93107.88;5091781;28;20028;-38
2022/04/20 00:29:49;;;;;;;8.93;5.63;;;;;;;-1.26;80.33;93107.09;5104859;28;20038;-38
2022/04/20 00:32:14;;;;;;;10.93;6.45;;;;;;;-1.35;80.90;93101.84;5111912;28;20477;-38
2022/04/20 00:34:40;;;;;;;7.90;6.18;;;;;;;-1.44;81.87;93102.03;5111784;28;20050;-39
2022/04/20 00:37:05;;;;;;;10.48;7.47;;;;;;;-1.51;82.02;93097.78;5111789;28;20515;-38
2022/04/20 00:39:30;;;;;;;10.95;7.13;;;;;;;-1.46;82.00;93093.66;5111554;28;20531;-38
2022/04/20 00:41:56;;;;;;;10.65;7.85;;;;;;;-1.49;82.14;93091.91;5110242;28;20024;-38
2022/04/20 00:44:23;;;;;;;9.23;6.88;;;;;;;-1.34;81.95;93087.81;5111749;28;20038;-38
2022/04/20 00:46:50;;;;;;;9.68;7.78;;;;;;;-1.34;82.11;93089.81;5111346;28;20484;-38
2022/04/20 00:49:16;;;;;;;10.45;7.15;;;;;;;-1.36;82.45;93092.22;5110097;28;20752;-38
2022/04/20 00:51:51;;;;;;;7.60;5.95;;;;;;;-1.32;82.10;93090.06;5110136;28;20118;-38
2022/04/20 00:54:16;;;;;;;8.88;6.30;;;;;;;-1.15;79.92;93086.25;5111568;28;20074;-38
2022/04/20 00:56:42;;;;;;;8.75;6.80;;;;;;;-1.27;79.53;93084.69;5111581;28;20028;-38
2022/04/20 00:59:07;;;;;;;10.63;7.35;;;;;;;-1.25;80.07;93090.38;5111390;28;20396;-38
2022/04/20 01:01:32;;;;;;;10.73;7.03;;;;;;;-1.29;80.34;93086.38;5111513;28;20027;-38
2022/04/20 01:03:58;;;;;;;12.98;7.85;;;;;;;-1.29;79.77;93084.44;5111125;28;20027;-39
2022/04/20 01:06:24;;;;;;;15.02;6.80;;;;;;;-1.52;80.04;93082.03;5111406;28;20036;-38
2022/04/20 01:08:49;;;;;;;8.10;5.88;;;;;;;-1.44;79.74;93083.81;5111067;28;20482;-38
2022/04/20 01:11:15;;;;;;;7.10;5.25;;;;;;;-1.52;79.76;93082.78;5111311;28;20023;-38
2022/04/20 01:13:43;;;;;;;10.82;5.35;;;;;;;-1.65;79.76;93079.72;5100116;28;20038;-38
2022/04/20 01:16:09;;;;;;;12.90;5.28;;;;;;;-1.80;80.61;93068.28;5090440;28;20040;-38
2022/04/20 01:18:41;;;;;;;8.07;4.97;;;;;;;-1.72;80.64;93074.72;5090794;28;20031;-38
2022/04/20 01:21:07;;;;;;;7.60;5.60;;;;;;;-1.72;80.28;93067.34;5090505;28;20494;-38
2022/04/20 01:23:32;;;;;;;11.15;6.60;;;;;;;-1.68;80.84;93078.72;5090539;28;20023;-38
2022/04/20 01:25:58;;;;;;;9.93;6.82;;;;;;;-1.66;80.60;93081.69;5103036;28;20036;-38
2022/04/20 01:28:23;;;;;;;9.13;6.60;;;;;;;-1.70;81.20;93077.69;5110812;28;20016;-38
2022/04/20 01:30:49;;;;;;;7.50;5.43;;;;;;;-1.69;81.55;93079.19;5110747;28;20073;-38
2022/04/20 01:33:14;;;;;;;11.77;6.40;;;;;;;-1.84;81.28;93073.88;5111092;28;20020;-38
2022/04/20 01:35:58;;;;;;;7.28;5.95;;;;;;;-1.80;81.42;93073.69;5110682;28;20015;-38
2022/04/20 01:38:23;;;;;;;6.90;5.10;;;;;;;-1.77;81.08;93076.16;5110673;28;20575;-38
2022/04/20 01:40:49;;;;;;;5.53;4.63;;;;;;;-1.85;80.99;93077.06;5110674;28;20020;-39
2022/04/20 01:43:14;;;;;;;6.65;4.50;;;;;;;-1.81;80.79;93078.34;5110588;28;20023;-38
2022/04/20 01:45:40;;;;;;;8.90;6.70;;;;;;;-1.76;80.74;93074.97;5110931;28;20019;-38
2022/04/20 01:48:07;;;;;;;11.27;6.50;;;;;;;-1.71;81.52;93073.53;5113308;28;20015;-38
2022/04/20 01:50:33;;;;;;;7.07;5.38;;;;;;;-1.77;81.84;93076.16;5114858;28;20032;-38
2022/04/20 01:52:58;;;;;;;6.70;6.00;;;;;;;-1.68;81.47;93075.25;5114802;28;20020;-38
2022/04/20 01:55:23;;;;;;;7.18;5.53;;;;;;;-1.72;82.25;93083.59;5115099;27;20032;-38
2022/04/20 01:57:49;;;;;;;6.28;4.75;;;;;;;-1.74;80.95;93075.22;5114671;28;20016;-38
2022/04/20 02:06:39;;;;;;;8.80;5.47;;;;;;;-1.96;81.69;93082.38;5114834;28;20054;-38
2022/04/20 02:11:48;;;;;;;8.45;6.53;;;;;;;-1.76;81.73;93080.38;5114693;28;20039;-38
2022/04/20 02:20:19;;;;;;;8.57;5.85;;;;;;;-2.01;81.80;93088.47;5094140;28;20104;-38
2022/04/20 02:23:00;;;;;;;11.27;7.43;;;;;;;-1.93;81.27;93084.88;5110917;28;20024;-38
2022/04/20 02:25:44;;;;;;;8.38;6.32;;;;;;;-2.02;81.73;93087.75;5114150;28;20611;-38
2022/04/20 02:28:43;;;;;;;10.07;6.05;;;;;;;-2.02;82.18;93095.09;5114164;28;20066;-38
2022/04/20 02:31:27;;;;;;;10.93;6.90;;;;;;;-1.95;82.34;93086.56;5114413;28;20470;-38
2022/04/20 02:34:26;;;;;;;10.02;6.85;;;;;;;-1.93;82.25;93093.00;5114416;28;20047;-38
2022/04/20 02:36:58;;;;;;;8.73;6.18;;;;;;;-1.89;80.68;93082.69;5114082;28;20515;-38
2022/04/20 02:39:23;;;;;;;10.80;7.50;;;;;;;-1.94;80.43;93079.94;5114399;28;20518;-38
2022/04/20 02:41:49;;;;;;;13.02;8.57;;;;;;;-1.88;80.56;93078.00;5112787;28;20098;-38
2022/04/20 02:44:14;;;;;;;15.10;8.15;;;;;;;-2.04;81.04;93073.19;5114167;28;20404;-38
2022/04/20 02:46:39;;;;;;;12.13;8.10;;;;;;;-2.01;80.89;93075.69;5114391;28;20031;-38
2022/04/20 02:49:05;;;;;;;15.52;8.95;;;;;;;-2.05;81.49;93077.88;5113896;28;20119;-38
2022/04/20 02:51:30;;;;;;;14.38;9.18;;;;;;;-1.92;80.95;93080.94;5114278;28;20031;-38
2022/04/20 02:53:56;;;;;;;14.13;8.10;;;;;;;-1.82;80.06;93076.13;5113700;28;20028;-38
2022/04/20 02:56:21;;;;;;;14.15;9.25;;;;;;;-1.86;80.29;93076.31;5113654;28;20020;-38
2022/04/20 02:58:47;;;;;;;13.50;9.35;;;;;;;-1.99;81.00;93084.06;5114112;28;20024;-38
2022/04/20 03:01:12;;;;;;;13.85;8.55;;;;;;;-1.97;80.99;93081.63;5113752;28;20028;-38
2022/04/20 03:03:37;;;;;;;20.90;8.93;;;;;;;-1.93;80.35;93092.25;5113890;28;20024;-38
2022/04/20 03:06:03;;;;;;;13.70;8.05;;;;;;;-2.17;80.30;93075.53;5113725;27;20035;-39
2022/04/20 03:08:28;;;;;;;14.88;9.73;;;;;;;-1.99;80.46;93100.28;5113522;28;20034;-38
2022/04/20 03:10:54;;;;;;;11.52;8.93;;;;;;;-2.07;79.73;93107.34;5113333;28;20028;-38
2022/04/20 03:13:19;;;;;;;15.02;9.18;;;;;;;-2.08;79.10;93100.44;5105288;28;20027;-38
2022/04/20 03:15:46;;;;;;;14.73;8.35;;;;;;;-2.09;79.03;93106.34;5092760;28;20048;-38
2022/04/20 03:18:12;;;;;;;14.65;9.95;;;;;;;-2.11;80.36;93111.47;5103153;28;20034;-38
2022/04/20 03:20:38;;;;;;;14.13;9.05;;;;;;;-1.96;79.70;93109.41;5113138;28;20016;-38
2022/04/20 03:36:30;;;;;;;12.98;8.65;;;;;;;-2.12;81.69;93108.03;5113201;28;20416;-38
2022/04/20 03:38:56;;;;;;;16.17;10.35;;;;;;;-2.03;81.68;93113.28;5112719;28;20023;-38
2022/04/20 03:41:22;;;;;;;17.63;10.50;;;;;;;-2.04;82.13;93109.13;5111545;28;20027;-38
2022/04/20 03:43:48;;;;;;;16.25;9.50;;;;;;;-1.99;82.12;93107.69;5112988;28;20480;-38
2022/04/20 03:46:13;;;;;;;19.38;11.02;;;;;;;-2.03;82.34;93110.59;5113020;28;20019;-38
2022/04/20 03:48:40;;;;;;;20.70;11.55;;;;;;;-2.03;81.97;93109.84;5112863;28;20047;-38
2022/04/20 03:51:05;;;;;;;22.25;12.43;;;;;;;-2.00;81.85;93111.59;5112497;28;20023;-38
2022/04/20 03:53:31;;;;;;;15.90;10.80;;;;;;;-1.97;82.09;93111.38;5112534;28;20015;-38
2022/04/20 03:55:56;;;;;;;16.67;11.25;;;;;;;-1.93;82.43;93109.22;5112395;28;20035;-38
2022/04/20 03:58:22;;;;;;;31.38;12.10;;;;;;;-1.81;82.24;93110.06;5112374;28;20031;-38
2022/04/20 04:00:47;;;;;;;21.52;11.93;;;;;;;-1.71;82.49;93106.72;5112290;28;20019;-38
2022/04/20 04:03:13;;;;;;;19.17;12.52;;;;;;;-1.57;81.76;93102.41;5112631;28;20072;-38
2022/04/20 04:05:38;;;;;;;17.20;12.35;;;;;;;-1.45;80.06;93101.28;5112262;28;20015;-38
2022/04/20 04:08:05;;;;;;;18.92;12.57;;;;;;;-1.63;80.83;93086.13;5112526;28;20015;-38
2022/04/20 04:10:30;;;;;;;25.20;14.43;;;;;;;-1.45;81.54;93100.56;5111987;28;20051;-38
2022/04/20 04:12:56;;;;;;;23.20;16.20;;;;;;;-1.35;81.39;93104.56;5107159;28;20086;-37
2022/04/20 04:15:22;;;;;;;38.53;22.75;;;;;;;-1.26;80.37;93097.03;5109531;28;20039;-37
2022/04/20 04:17:54;;;;;;;33.78;18.13;;;;;;;-1.47;79.71;93046.88;5111925;28;20401;-38
2022/04/20 04:20:22;;;;;;;40.42;21.25;;;;;;;-1.25;79.77;93095.78;5111896;28;20028;-38
2022/04/20 04:22:49;;;;;;;28.80;19.45;;;;;;;-1.23;79.96;93093.31;5111930;28;20024;-38
2022/04/20 04:25:15;;;;;;;35.50;18.88;;;;;;;-1.20;80.70;93097.03;5112127;28;20111;-38
2022/04/20 04:27:41;;;;;;;23.55;16.00;;;;;;;-0.93;80.17;93101.91;5111872;28;20051;-38
2022/04/20 04:30:07;;;;;;;24.02;15.63;;;;;;;-0.83;80.15;93092.38;5111746;28;20044;-38
2022/04/20 04:32:32;;;;;;;22.02;14.05;;;;;;;-0.73;80.27;93092.91;5112056;28;20028;-37
2022/04/20 04:34:58;;;;;;;19.73;13.90;;;;;;;-0.68;80.91;93089.47;5110418;28;20034;-37
2022/04/20 04:37:24;;;;;;;20.02;13.27;;;;;;;-0.65;81.89;93091.94;5111624;28;20026;-38
2022/04/20 04:39:49;;;;;;;18.20;12.48;;;;;;;-0.44;81.98;93101.44;5110746;28;20397;-37
2022/04/20 04:42:14;;;;;;;22.85;13.00;;;;;;;-0.29;81.77;93095.81;5111832;28;20016;-38
2022/04/20 04:44:40;;;;;;;18.65;11.90;;;;;;;-0.17;80.76;93087.25;5111808;27;20015;-37
2022/04/20 04:49:50;;;;;;;15.70;11.25;;;;;;;-0.23;82.19;93075.63;5111445;28;20561;-37
2022/04/20 04:52:15;;;;;;;19.48;11.95;;;;;;;-0.08;82.51;93073.47;5111393;28;20024;-37
2022/04/20 04:54:41;;;;;;;18.15;12.90;;;;;;;-0.03;82.77;93070.03;5111655;28;20027;-38
2022/04/20 04:57:07;;;;;;;21.48;13.50;;;;;;;0.14;82.46;93080.91;5111586;28;20536;-37
2022/04/20 04:59:34;;;;;;;21.63;14.93;;;;;;;0.23;83.00;93080.69;5110308;28;20019;-37
2022/04/20 05:02:00;;;;;;;23.65;14.10;;;;;;;0.39;82.84;93079.94;5111493;28;20024;-37
2022/04/20 05:04:25;;;;;;;20.40;14.05;;;;;;;0.42;82.82;93073.53;5111267;28;20031;-37
2022/04/20 05:06:51;;;;;;;21.52;14.48;;;;;;;0.51;83.00;93067.88;5111186;28;20024;-38
2022/04/20 05:09:16;;;;;;;24.38;15.43;;;;;;;0.55;83.49;93071.09;5111147;28;20065;-38
2022/04/20 05:11:42;;;;;;;23.02;16.90;;;;;;;0.73;82.46;93075.28;5092226;28;20023;-38
2022/04/20 05:14:08;;;;;;;30.77;17.77;;;;;;;0.70;82.42;93065.41;5104920;28;20106;-37
2022/04/20 05:16:34;;;;;;;23.25;14.73;;;;;;;0.83;83.36;93062.19;5110993;28;20049;-38
2022/04/20 05:19:00;;;;;;;17.50;11.23;;;;;;;0.96;83.89;93065.88;5111144;28;20404;-38
2022/04/20 05:21:25;;;;;;;10.43;7.75;;;;;;;1.12;83.81;93064.38;5110530;28;20523;-38
2022/04/20 05:23:50;;;;;;;14.95;10.18;;;;;;;1.15;83.77;93068.84;5110715;28;20024;-38
2022/04/20 05:26:16;;;;;;;10.68;8.45;;;;;;;1.17;84.21;93064.34;5110831;28;20027;-38
2022/04/20 05:28:41;;;;;;;11.48;9.02;;;;;;;1.31;83.78;93062.59;5110877;28;20023;-39
2022/04/20 05:31:07;;;;;;;12.45;8.63;;;;;;;1.38;83.42;93064.81;5110738;28;20027;-39
2022/04/20 05:33:34;;;;;;;16.38;10.48;;;;;;;1.42;83.24;93073.47;5110802;28;20028;-39
2022/04/20 05:35:59;;;;;;;19.98;12.30;;;;;;;1.48;83.86;93069.47;5111022;28;20027;-38
2022/04/20 05:41:39;;;;;;;11.70;7.97;;;;;;;1.60;82.72;93077.59;5110951;28;20569;-38
2022/04/20 05:44:05;;;;;;;19.58;12.38;;;;;;;1.63;82.33;93082.78;5111023;28;20024;-38
2022/04/20 05:46:32;;;;;;;13.85;10.98;;;;;;;1.61;83.13;93081.78;5110592;28;20046;-38
2022/04/20 05:48:57;;;;;;;83.38;37.22;;;;;;;1.81;82.28;93081.47;5110865;28;20022;-39
2022/04/20 05:51:23;;;;;;;120.13;54.53;;;;;;;1.92;81.99;93090.34;5110878;28;20027;-38
2022/04/20 05:53:48;;;;;;;39.38;21.65;;;;;;;2.05;81.71;93082.38;5110848;28;20050;-38
2022/04/20 05:56:13;;;;;;;43.45;20.98;;;;;;;2.02;81.86;93088.81;5110818;28;20511;-38
2022/04/20 05:58:39;;;;;;;52.58;28.52;;;;;;;2.05;81.76;93074.19;5110717;28;20404;-39
2022/04/20 06:01:04;;;;;;;10.10;7.93;;;;;;;2.08;80.06;93081.34;5110503;28;20540;-38
2022/04/20 06:03:30;;;;;;;27.05;17.80;;;;;;;2.19;80.49;93086.00;5110412;28;20024;-37
2022/04/20 06:05:55;;;;;;;18.77;12.40;;;;;;;2.26;81.17;93080.03;5108877;28;20032;-38
2022/04/20 06:08:21;;;;;;;10.70;7.63;;;;;;;2.38;79.40;93076.00;5090364;28;20013;-39
2022/04/20 06:10:46;;;;;;;10.10;7.38;;;;;;;2.29;79.99;93074.31;5090113;28;20024;-38
2022/04/20 06:13:12;;;;;;;14.38;9.48;;;;;;;2.38;79.49;93075.25;5093556;28;20024;-38
2022/04/20 06:15:38;;;;;;;16.73;11.35;;;;;;;2.30;79.70;93083.22;5089838;28;20072;-38
2022/04/20 06:18:03;;;;;;;14.77;10.75;;;;;;;2.33;80.22;93081.47;5090197;28;20070;-38
2022/04/20 06:20:29;;;;;;;21.73;15.48;;;;;;;2.40;80.38;93084.41;5090233;28;20035;-38
2022/04/20 06:22:55;;;;;;;13.60;10.82;;;;;;;2.48;79.59;93079.88;5089950;28;20660;-39
2022/04/20 06:25:21;;;;;;;9.65;7.65;;;;;;;2.56;78.66;93080.81;5089877;28;20016;-39
2022/04/20 06:27:46;;;;;;;7.18;6.43;;;;;;;2.64;77.93;93079.03;5089894;28;20027;-39
2022/04/20 06:30:12;;;;;;;13.88;7.20;;;;;;;2.59;77.63;93095.41;5089815;28;20035;-38
2022/04/20 06:32:37;;;;;;;11.48;8.60;;;;;;;2.76;77.25;93099.50;5090168;28;20049;-38
2022/04/20 06:35:03;;;;;;;27.85;17.52;;;;;;;2.93;77.30;93097.41;5093712;28;20024;-39
2022/04/20 06:37:29;;;;;;;33.85;23.10;;;;;;;3.03;77.39;93097.81;5093491;28;20028;-39
2022/04/20 06:39:56;;;;;;;10.70;6.85;;;;;;;3.04;76.38;93091.09;5093666;28;20035;-39
2022/04/20 06:42:22;;;;;;;6.68;5.18;;;;;;;2.89;75.17;93104.38;5093445;28;20488;-38
2022/04/20 06:44:47;;;;;;;9.68;6.40;;;;;;;2.90;75.03;93097.69;5093771;28;20016;-38
2022/04/20 06:47:13;;;;;;;12.32;9.27;;;;;;;2.99;75.57;93109.00;5093445;28;20024;-39
2022/04/20 06:49:38;;;;;;;10.43;7.80;;;;;;;3.11;76.04;93108.91;5093372;28;20074;-39
2022/04/20 07:00:16;;;;;;;13.10;7.03;;;;;;;3.25;76.10;93107.81;5093504;28;20534;-39
2022/04/20 07:02:42;;;;;;;7.35;6.25;;;;;;;3.38;75.62;93099.75;5093193;28;20024;-39
2022/04/20 07:05:09;;;;;;;11.52;8.48;;;;;;;3.56;74.27;93107.25;5093088;28;20437;-38
2022/04/20 07:07:35;;;;;;;7.78;6.10;;;;;;;3.70;73.45;93100.66;5093155;28;20031;-39
2022/04/20 07:10:01;;;;;;;6.90;5.60;;;;;;;3.66;72.54;93108.41;5092990;28;20028;-39
2022/04/20 07:12:26;;;;;;;6.53;5.50;;;;;;;3.69;71.92;93108.09;5093555;28;20028;-38
2022/04/20 07:14:52;;;;;;;6.63;5.75;;;;;;;3.74;72.57;93109.31;5112804;28;20429;-38
2022/04/20 07:17:17;;;;;;;7.20;6.13;;;;;;;3.78;72.47;93117.94;5113293;28;20024;-39
2022/04/20 07:19:42;;;;;;;7.00;5.85;;;;;;;3.74;72.70;93117.50;5113117;28;20023;-39
2022/04/20 07:22:08;;;;;;;9.10;6.57;;;;;;;3.68;73.08;93114.09;5113437;28;20068;-38
2022/04/20 07:24:33;;;;;;;8.93;6.55;;;;;;;3.58;74.34;93116.41;5113147;28;20096;-38
2022/04/20 07:26:59;;;;;;;7.38;6.22;;;;;;;3.69;73.99;93108.09;5113050;28;20023;-38
2022/04/20 07:29:24;;;;;;;7.88;6.75;;;;;;;3.60;74.68;93097.53;5113064;28;20016;-38
2022/04/20 07:31:49;;;;;;;9.98;7.43;;;;;;;3.65;75.24;93101.44;5113235;28;20019;-38
2022/04/20 07:34:15;;;;;;;7.47;6.22;;;;;;;3.67;75.41;93104.41;5113001;28;20567;-38
2022/04/20 07:36:40;;;;;;;7.45;6.50;;;;;;;3.70;75.79;93106.13;5112886;28;20024;-38
2022/04/20 07:39:06;;;;;;;6.43;5.72;;;;;;;3.79;75.47;93119.41;5112771;28;20030;-38
2022/04/20 07:41:31;;;;;;;10.70;7.22;;;;;;;3.74;76.22;93114.75;5112826;28;20027;-38
2022/04/20 07:43:57;;;;;;;7.72;6.05;;;;;;;3.78;75.65;93120.66;5112928;28;20034;-37
2022/04/20 07:46:22;;;;;;;14.20;9.13;;;;;;;3.66;77.34;93117.31;5112219;28;20499;-38
2022/04/20 07:48:48;;;;;;;20.23;12.40;;;;;;;3.60;77.74;93119.38;5112914;28;20027;-38
2022/04/20 07:51:13;;;;;;;24.75;14.05;;;;;;;3.49;78.49;93113.25;5112900;28;20450;-38
2022/04/20 07:53:39;;;;;;;21.80;15.40;;;;;;;3.47;79.39;93102.13;5112841;28;20035;-37
2022/04/20 07:56:05;;;;;;;17.38;10.75;;;;;;;3.51;80.22;93108.06;5112510;27;20027;-38
2022/04/20 07:58:31;;;;;;;15.93;11.25;;;;;;;3.55;79.72;93105.78;5109894;28;20076;-38
2022/04/20 08:00:57;;;;;;;13.32;9.38;;;;;;;3.62;79.46;93108.66;5091976;28;20473;-38
2022/04/20 08:03:23;;;;;;;14.82;11.02;;;;;;;3.75;78.70;93091.66;5092265;28;20103;-38
2022/04/20 08:05:54;;;;;;;9.93;7.75;;;;;;;3.70;79.05;93095.19;5091893;28;20024;-38
2022/04/20 08:08:21;;;;;;;10.73;7.88;;;;;;;3.74;78.47;93093.66;5091789;28;20032;-38
2022/04/20 08:10:47;;;;;;;8.38;6.60;;;;;;;3.72;78.37;93081.78;5092105;28;20028;-38
2022/04/20 08:15:57;;;;;;;9.65;7.78;;;;;;;3.72;79.16;93081.78;5112130;28;20108;-38
2022/04/20 08:18:23;;;;;;;8.57;6.90;;;;;;;3.67;78.89;93088.78;5111907;28;20019;-38
2022/04/20 08:20:49;;;;;;;17.70;11.77;;;;;;;3.95;79.97;93085.72;5112227;28;20027;-38
2022/04/20 08:23:15;;;;;;;14.30;11.35;;;;;;;4.29;79.36;93086.78;5112293;28;20405;-38
2022/04/20 08:25:41;;;;;;;10.80;8.75;;;;;;;4.31;77.21;93086.28;5112140;28;20656;-38
2022/04/20 08:28:07;;;;;;;7.78;6.97;;;;;;;4.49;77.19;93086.25;5111854;28;20020;-38
2022/04/20 08:30:34;;;;;;;12.98;10.38;;;;;;;4.58;77.13;93082.41;5112076;28;20103;-38
2022/04/20 08:32:59;;;;;;;7.45;6.47;;;;;;;4.53;76.30;93072.28;5112008;28;20031;-38
2022/04/20 08:35:25;;;;;;;9.52;7.50;;;;;;;4.39;77.55;93073.50;5111789;28;20571;-38
2022/04/20 08:37:50;;;;;;;8.07;6.22;;;;;;;4.38;77.90;93072.75;5111573;28;20016;-38
2022/04/20 08:40:16;;;;;;;8.70;7.03;;;;;;;4.35;79.11;93065.56;5111698;28;20023;-38
2022/04/20 08:42:41;;;;;;;6.47;5.63;;;;;;;4.30;78.34;93060.94;5111632;28;20027;-38
2022/04/20 08:45:07;;;;;;;6.22;5.05;;;;;;;4.50;77.88;93074.06;5111814;28;20015;-38
2022/04/20 08:47:38;;;;;;;11.00;9.07;;;;;;;4.39;77.68;93066.03;5110219;28;20602;-38
2022/04/20 08:50:05;;;;;;;6.80;6.00;;;;;;;4.56;78.40;93063.06;5111731;28;20027;-38
2022/04/20 08:52:42;;;;;;;7.35;5.70;;;;;;;4.60;77.25;93071.69;5111691;28;20075;-38
2022/04/20 08:55:07;;;;;;;8.55;6.35;;;;;;;4.73;78.27;93063.53;5106048;28;20024;-39
2022/04/20 08:57:33;;;;;;;7.72;6.32;;;;;;;4.92;77.21;93056.03;5090729;28;20517;-39
2022/04/20 09:00:00;;;;;;;7.03;5.70;;;;;;;4.95;75.41;93059.72;5090901;28;20081;-38
2022/04/20 09:02:25;;;;;;;7.25;6.13;;;;;;;4.97;76.57;93063.41;5090901;28;20543;-39
2022/04/20 09:04:54;;;;;;;7.20;6.30;;;;;;;5.20;75.59;93053.56;5090883;28;20110;-38
2022/04/20 09:07:19;;;;;;;6.53;5.82;;;;;;;5.52;76.49;93045.31;5090786;28;20026;-39
2022/04/20 09:09:45;;;;;;;7.65;6.32;;;;;;;5.84;75.50;93047.97;5091056;28;20024;-39
2022/04/20 09:12:17;;;;;;;6.55;5.85;;;;;;;5.95;73.33;93025.84;5090729;28;20097;-38
2022/04/20 09:14:45;;;;;;;7.22;6.45;;;;;;;6.11;73.94;93019.25;5109624;28;20023;-38
2022/04/20 09:17:12;;;;;;;7.05;6.35;;;;;;;6.32;74.08;93011.09;5109876;28;20023;-39
2022/04/20 09:19:39;;;;;;;12.77;7.35;;;;;;;6.47;73.95;93009.28;5110834;28;20520;-39
2022/04/20 09:22:24;;;;;;;7.72;6.72;;;;;;;6.66;73.96;93009.81;5110950;28;20019;-38
2022/04/20 09:24:58;;;;;;;8.50;7.47;;;;;;;6.62;73.37;93014.91;5109578;28;20587;-38
2022/04/20 09:27:26;;;;;;;7.65;6.97;;;;;;;6.23;72.17;93009.56;5110875;28;20027;-38
2022/04/20 09:29:55;;;;;;;8.07;7.28;;;;;;;6.13;73.44;93003.75;5109608;28;20016;-38
2022/04/20 09:32:40;;;;;;;9.20;7.90;;;;;;;5.95;73.59;93006.66;5111032;28;20098;-38
2022/04/20 09:35:12;;;;;;;7.97;7.18;;;;;;;5.47;75.34;92993.38;5110823;28;20497;-38
2022/04/20 09:37:39;;;;;;;7.53;6.47;;;;;;;5.45;74.30;92987.69;5111023;28;20099;-39
2022/04/20 09:40:06;;;;;;;8.45;7.25;;;;;;;5.71;76.25;92976.72;5110977;27;20024;-38
2022/04/20 09:42:33;;;;;;;7.75;6.97;;;;;;;5.89;76.39;92984.13;5110964;28;20088;-38
2022/04/20 09:45:03;;;;;;;7.82;7.07;;;;;;;6.11;76.34;92983.63;5110935;28;20401;-39
2022/04/20 09:50:24;;;;;;;8.65;7.82;;;;;;;6.31;74.81;92963.00;5110907;28;20070;-38
2022/04/20 09:52:55;;;;;;;8.88;7.65;;;;;;;6.18;72.99;92965.81;5092732;28;20532;-38
2022/04/20 09:55:27;;;;;;;9.40;8.48;;;;;;;5.83;74.90;92967.75;5090158;28;20454;-38
2022/04/20 09:58:09;;;;;;;10.13;8.50;;;;;;;5.57;75.08;92970.53;5090359;28;20032;-38
2022/04/20 10:00:59;;;;;;;10.05;7.70;;;;;;;5.41;76.98;92965.38;5090223;28;20478;-38
2022/04/20 10:03:31;;;;;;;11.70;9.13;;;;;;;5.24;78.13;92971.19;5089943;28;20070;-38
2022/04/20 10:05:58;;;;;;;11.98;9.07;;;;;;;5.14;78.47;92959.16;5090094;28;20108;-39
2022/04/20 10:08:24;;;;;;;10.85;8.75;;;;;;;5.10;78.25;92953.28;5090580;28;20061;-38
2022/04/20 10:10:52;;;;;;;9.35;7.47;;;;;;;5.07;78.48;92959.78;5094144;28;20024;-38
2022/04/20 10:13:19;;;;;;;9.25;8.13;;;;;;;4.97;78.49;92953.25;5097942;28;20051;-38
2022/04/20 10:18:30;;;;;;;11.85;9.32;;;;;;;4.82;80.64;92942.09;5094221;28;20031;-38
2022/04/20 10:20:59;;;;;;;10.73;9.02;;;;;;;4.50;80.60;92934.66;5094015;28;20023;-38
2022/04/20 10:23:25;;;;;;;11.73;8.20;;;;;;;4.26;81.93;92943.00;5093253;28;20020;-38
2022/04/20 10:25:52;;;;;;;12.30;9.45;;;;;;;4.29;83.01;92944.69;5091647;28;20042;-38
2022/04/20 10:28:50;;;;;;;11.73;9.90;;;;;;;4.29;83.25;92947.41;5091747;28;20028;-38
2022/04/20 10:31:44;;;;;;;12.50;10.40;;;;;;;4.38;83.69;92946.28;5091250;28;20032;-38
2022/04/20 10:34:14;;;;;;;11.38;9.98;;;;;;;4.44;83.80;92936.03;5090016;28;20493;-39
2022/04/20 10:36:40;;;;;;;13.80;10.43;;;;;;;4.65;84.24;92936.16;5090270;28;20024;-38
2022/04/20 10:39:22;;;;;;;13.68;9.80;;;;;;;4.88;83.23;92940.72;5091403;28;20085;-39
2022/04/20 10:42:11;;;;;;;12.70;9.55;;;;;;;5.10;81.66;92942.31;5091526;28;20028;-38
2022/04/20 10:44:55;;;;;;;12.30;10.10;;;;;;;5.23;81.50;92934.84;5091455;28;20453;-39
2022/04/20 10:47:24;;;;;;;11.07;9.40;;;;;;;5.30;80.88;92934.22;5094208;28;20169;-38
2022/04/20 10:49:49;;;;;;;;;;;;;;;5.34;78.38;92922.97;5112110;28;20034;-38
2022/04/20 10:52:29;;;;;;;9.13;7.95;;;;;;;4.96;79.31;92897.09;5111745;28;19912;-38
2022/04/20 10:54:56;;;;;;;11.10;9.20;;;;;;;4.84;81.16;92907.47;5111970;28;20031;-38
2022/04/20 10:57:38;;;;;;;8.88;7.80;;;;;;;4.91;81.41;92914.31;5111706;28;20114;-38
2022/04/20 11:00:22;;;;;;;8.05;6.75;;;;;;;4.80;81.06;92914.53;5112175;28;20035;-38
2022/04/20 11:02:52;;;;;;;7.20;6.47;;;;;;;4.63;81.79;92869.06;5111666;28;20058;-38
2022/04/20 11:05:22;;;;;;;13.35;10.82;;;;;;;4.86;84.44;92898.75;5111382;28;20035;-38
2022/04/20 11:08:04;;;;;;;12.40;9.15;;;;;;;5.02;84.98;92895.72;5111196;28;20042;-38
2022/04/20 11:10:30;;;;;;;11.07;8.68;;;;;;;5.03;84.43;92893.69;5110209;28;20027;-39
2022/04/20 11:19:32;;;;;;;9.48;7.75;;;;;;;4.92;82.84;92880.22;5090457;28;20039;-39
2022/04/20 11:22:08;;;;;;;10.65;8.27;;;;;;;4.85;83.84;92875.41;5070508;28;20043;-39
2022/04/20 11:24:33;;;;;;;11.43;8.30;;;;;;;4.80;83.89;92890.66;5091280;28;20028;-39
2022/04/20 11:26:59;;;;;;;12.00;9.90;;;;;;;4.65;84.20;92890.44;5090954;28;20481;-39
2022/04/20 11:29:26;;;;;;;17.58;13.10;;;;;;;4.65;85.42;92884.22;5090677;28;20039;-38
2022/04/20 11:31:57;;;;;;;15.10;10.95;;;;;;;4.65;85.35;92884.22;5090595;28;20036;-38
2022/04/20 11:34:24;;;;;;;12.75;9.93;;;;;;;4.70;86.54;92880.66;5090491;28;20414;-38
2022/04/20 11:36:52;;;;;;;9.88;8.38;;;;;;;4.73;84.94;92885.81;5090384;28;20093;-38
2022/04/20 11:39:22;;;;;;;10.15;9.07;;;;;;;4.51;84.00;92876.00;5090362;28;20024;-38
2022/04/20 11:41:49;;;;;;;11.63;9.73;;;;;;;4.49;85.60;92873.06;5090225;28;20039;-38
2022/04/20 11:44:36;;;;;;;10.65;9.07;;;;;;;4.57;86.02;92871.16;5098870;28;20031;-38
2022/04/20 11:47:07;;;;;;;12.20;9.27;;;;;;;4.60;84.83;92861.94;5110867;28;20118;-38
2022/04/20 11:49:44;;;;;;;10.20;8.77;;;;;;;4.60;84.43;92870.13;5110750;28;20512;-38
2022/04/20 11:52:11;;;;;;;11.93;9.95;;;;;;;4.53;85.39;92876.22;5110775;28;20135;-38
2022/04/20 11:54:38;;;;;;;13.57;10.57;;;;;;;4.57;85.85;92862.97;5110378;28;20046;-38
2022/04/20 11:57:08;;;;;;;11.05;9.57;;;;;;;4.74;86.45;92851.75;5110474;28;20038;-38
2022/04/20 11:59:34;;;;;;;12.38;10.15;;;;;;;4.78;85.17;92848.69;5110228;28;20031;-38
2022/04/20 12:01:59;;;;;;;13.73;10.00;;;;;;;4.86;83.55;92861.19;5110254;28;20519;-38
2022/04/20 12:04:28;;;;;;;12.80;10.50;;;;;;;4.86;85.16;92852.25;5110270;28;20524;-38
2022/04/20 12:07:00;;;;;;;12.93;10.20;;;;;;;5.05;85.37;92855.59;5109945;28;20027;-38
2022/04/20 12:09:29;;;;;;;15.00;10.85;;;;;;;5.15;84.04;92846.47;5110023;28;20508;-39
2022/04/20 12:11:56;;;;;;;30.73;10.95;;;;;;;5.24;84.76;92846.00;5108096;28;20107;-38
2022/04/20 12:14:25;;;;;;;10.80;8.52;;;;;;;5.26;82.56;92838.00;5093476;28;20028;-38
2022/04/20 12:16:52;;;;;;;9.60;8.02;;;;;;;5.19;81.87;92848.88;5089841;28;20101;-38
2022/04/20 12:19:19;;;;;;;13.63;8.93;;;;;;;5.02;84.04;92837.53;5088482;28;20043;-39
2022/04/20 12:21:46;;;;;;;10.60;9.23;;;;;;;4.84;83.58;92841.09;5089313;28;20024;-39
2022/04/20 12:24:18;;;;;;;10.90;8.98;;;;;;;4.77;85.19;92836.25;5096999;28;20019;-39
2022/04/20 12:26:46;;;;;;;13.50;10.50;;;;;;;4.73;86.18;92830.38;5112223;28;20028;-39
2022/04/20 12:29:14;;;;;;;13.23;11.33;;;;;;;4.87;87.63;92829.88;5111862;28;20106;-39
2022/04/20 12:31:42;;;;;;;10.57;9.20;;;;;;;4.94;87.21;92836.66;5111690;28;20433;-39